Time;durP1;ratioP1;P1;durP2;ratioP2;P2;SDS_P1;SDS_P2;PMS_P1;PMS_P2;Temp;Humidity;BMP_temperature;BMP_pressure;BME280_temperature;BME280_humidity;BME280_pressure;Samples;Min_cycle;Max_cycle;Signal;HPM_P1;HPM_P2
2023/11/19 00:09:03;;;;;;;24.63;12.85;;;;;;;1.78;77.91;100639.94;30973434;28;97547;-63
2023/11/19 00:24:04;;;;;;;21.88;12.93;;;;;;;1.76;77.70;100587.47;30971431;28;98419;-62
2023/11/19 00:39:05;;;;;;;22.98;13.80;;;;;;;1.57;77.56;100558.16;30969843;28;97375;-62
2023/11/19 00:54:06;;;;;;;28.83;15.82;;;;;;;1.32;78.28;100518.63;30969006;28;97602;-62
2023/11/19 01:09:08;;;;;;;29.35;14.88;;;;;;;1.19;78.37;100494.16;30968530;28;97125;-63
2023/11/19 01:24:09;;;;;;;27.65;15.63;;;;;;;1.01;78.40;100441.09;30966929;28;97357;-63
2023/11/19 01:39:10;;;;;;;25.33;14.55;;;;;;;0.86;78.92;100415.91;30965676;28;97122;-62
2023/11/19 01:54:11;;;;;;;28.63;14.43;;;;;;;0.83;78.92;100404.69;30962529;28;97008;-63
2023/11/19 02:09:11;;;;;;;25.50;14.18;;;;;;;0.83;79.07;100373.19;30962217;28;97190;-64
2023/11/19 02:24:14;;;;;;;30.67;14.80;;;;;;;0.90;78.94;100349.16;30961178;28;97626;-63
2023/11/19 02:39:20;;;;;;;28.90;14.25;;;;;;;0.87;78.89;100333.66;30960381;28;97288;-63
2023/11/19 02:54:26;;;;;;;27.70;14.52;;;;;;;0.85;78.85;100325.88;30959058;28;96780;-63
2023/11/19 03:09:27;;;;;;;31.63;15.35;;;;;;;0.80;78.69;100280.78;30975256;28;97527;-62
2023/11/19 03:24:28;;;;;;;29.88;14.38;;;;;;;0.75;78.62;100240.91;30977873;28;97754;-62
2023/11/19 03:39:29;;;;;;;24.73;13.73;;;;;;;0.76;79.16;100253.91;30975702;28;107872;-62
2023/11/19 03:54:29;;;;;;;22.52;13.85;;;;;;;0.71;79.19;100205.34;30974059;28;97502;-62
2023/11/19 04:09:30;;;;;;;26.23;14.10;;;;;;;0.70;79.09;100180.06;30973445;28;97314;-62
2023/11/19 04:24:30;;;;;;;23.73;12.65;;;;;;;0.72;79.03;100115.25;30971869;28;97087;-63
2023/11/19 04:39:31;;;;;;;27.52;14.07;;;;;;;0.66;79.33;100059.69;30969771;28;112348;-63
2023/11/19 04:54:31;;;;;;;26.00;13.07;;;;;;;0.75;79.27;100045.09;30967508;28;97794;-62
2023/11/19 05:09:31;;;;;;;19.98;10.63;;;;;;;0.88;79.33;100042.41;30964943;28;107811;-61
2023/11/19 05:24:32;;;;;;;19.48;11.27;;;;;;;0.91;79.36;100007.25;30963315;28;97265;-63
2023/11/19 05:39:32;;;;;;;24.73;11.50;;;;;;;1.05;79.34;99982.63;30962470;28;97023;-62
2023/11/19 05:54:37;;;;;;;16.75;9.68;;;;;;;1.17;79.32;99963.31;30959937;28;97395;-63
2023/11/19 06:09:39;;;;;;;17.50;10.48;;;;;;;1.33;79.63;99953.34;30958992;28;97399;-61
2023/11/19 06:24:40;;;;;;;15.77;9.25;;;;;;;1.40;79.15;99939.78;30959246;28;96589;-64
2023/11/19 06:39:40;;;;;;;17.88;10.98;;;;;;;1.54;79.46;99899.31;30966310;28;110027;-64
2023/11/19 06:54:40;;;;;;;13.45;8.48;;;;;;;1.77;79.22;99866.84;30977064;28;97206;-63
2023/11/19 07:09:41;;;;;;;12.90;7.25;;;;;;;1.97;78.76;99838.97;30977317;28;96567;-63
2023/11/19 07:24:43;;;;;;;15.13;7.70;;;;;;;2.14;78.66;99821.84;30974990;28;97265;-62
2023/11/19 07:39:43;;;;;;;11.88;6.68;;;;;;;2.30;78.24;99817.97;30974265;28;96948;-63
2023/11/19 07:54:44;;;;;;;18.80;8.25;;;;;;;2.35;77.92;99789.50;30969040;28;96994;-63
2023/11/19 08:09:45;;;;;;;14.25;7.82;;;;;;;2.40;77.96;99783.88;30970770;28;97182;-64
2023/11/19 08:24:45;;;;;;;15.52;8.63;;;;;;;2.38;77.64;99741.94;30970311;28;97095;-63
2023/11/19 08:39:46;;;;;;;12.90;7.65;;;;;;;2.28;77.93;99717.38;30967334;28;111108;-62
2023/11/19 08:54:46;;;;;;;12.02;7.15;;;;;;;2.03;78.07;99670.31;30965256;28;96737;-63
2023/11/19 09:09:47;;;;;;;14.68;8.50;;;;;;;2.07;78.46;99644.63;30963269;28;97638;-62
2023/11/19 09:24:48;;;;;;;15.77;8.73;;;;;;;2.31;78.70;99652.25;30962830;28;114329;-64
2023/11/19 09:39:48;;;;;;;14.48;7.32;;;;;;;2.63;78.72;99622.34;30962867;28;96706;-63
2023/11/19 09:54:48;;;;;;;15.52;7.95;;;;;;;2.84;78.42;99603.88;30960024;28;97186;-63
2023/11/19 10:09:49;;;;;;;11.68;5.72;;;;;;;2.97;78.82;99550.97;30957675;28;97132;-64
2023/11/19 10:24:49;;;;;;;12.20;7.15;;;;;;;3.20;78.78;99516.53;30958506;28;97431;-63
2023/11/19 10:39:54;;;;;;;14.23;8.32;;;;;;;3.51;78.78;99477.69;30957069;28;96984;-63
2023/11/19 10:55:00;;;;;;;13.30;7.78;;;;;;;3.72;78.99;99472.19;30953766;28;97055;-64
2023/11/19 11:10:01;;;;;;;10.88;6.22;;;;;;;3.72;79.18;99450.31;30955175;28;96931;-63
2023/11/19 11:25:19;;;;;;;5.20;3.15;;;;;;;3.71;79.54;99431.00;30962835;28;96711;-64
2023/11/19 11:40:20;;;;;;;4.82;2.15;;;;;;;3.96;79.91;99420.78;30974288;28;97233;-62
2023/11/19 11:55:24;;;;;;;4.53;2.47;;;;;;;4.28;79.72;99402.84;30969263;28;110170;-62
2023/11/19 12:10:25;;;;;;;5.13;2.70;;;;;;;4.49;79.70;99378.84;30970431;28;97229;-63
2023/11/19 12:25:25;;;;;;;6.13;3.42;;;;;;;4.89;79.61;99367.78;30970723;28;96609;-63
2023/11/19 12:40:25;;;;;;;6.38;3.47;;;;;;;5.35;79.46;99354.38;30967288;28;96739;-65
2023/11/19 12:55:30;;;;;;;7.63;4.15;;;;;;;5.56;79.26;99342.59;30966321;28;97322;-63
2023/11/19 13:10:50;;;;;;;8.67;4.37;;;;;;;6.07;79.22;99316.19;30962756;28;97501;-63
2023/11/19 13:25:50;;;;;;;9.43;5.77;;;;;;;6.38;78.94;99299.69;30962528;28;96669;-64
2023/11/19 13:40:51;;;;;;;8.50;5.07;;;;;;;8.31;78.63;99283.59;30960593;28;105445;-63
2023/11/19 13:55:51;;;;;;;9.30;5.18;;;;;;;10.47;74.78;99295.03;30957760;28;96879;-63
2023/11/19 14:10:55;;;;;;;13.48;6.05;;;;;;;8.89;75.24;99296.38;30960820;28;112788;-64
2023/11/19 14:25:55;;;;;;;7.83;4.07;;;;;;;8.02;76.34;99295.69;30959384;28;96623;-63
2023/11/19 14:40:55;;;;;;;8.68;4.35;;;;;;;7.76;76.87;99286.25;30956379;28;115304;-65
2023/11/19 14:55:56;;;;;;;9.85;3.67;;;;;;;7.39;76.93;99274.50;30958157;28;96822;-65
2023/11/19 15:10:58;;;;;;;9.85;4.18;;;;;;;7.17;77.28;99285.84;30976831;28;97179;-64
2023/11/19 15:25:58;;;;;;;17.37;4.20;;;;;;;7.26;77.00;99306.03;30976254;28;97685;-63
2023/11/19 15:40:58;;;;;;;10.52;4.15;;;;;;;7.17;77.19;99305.19;30973055;28;112786;-63
2023/11/19 15:55:59;;;;;;;18.10;5.78;;;;;;;7.17;76.54;99323.75;30970117;28;111106;-63
2023/11/19 16:10:59;;;;;;;9.63;4.00;;;;;;;6.97;76.31;99339.19;30969755;28;96728;-62
2023/11/19 16:26:00;;;;;;;7.25;4.07;;;;;;;7.01;77.01;99329.06;30970677;28;96637;-61
2023/11/19 16:41:00;;;;;;;13.07;4.20;;;;;;;7.06;76.82;99332.88;30968514;28;97570;-63
2023/11/19 16:56:00;;;;;;;12.32;5.20;;;;;;;7.13;76.95;99314.50;30966116;28;97179;-63
2023/11/19 17:11:03;;;;;;;9.57;4.30;;;;;;;7.17;76.87;99333.53;30965395;28;97124;-62
2023/11/19 17:26:05;;;;;;;12.73;4.90;;;;;;;7.25;76.85;99326.38;30962902;28;97593;-66
2023/11/19 17:41:05;;;;;;;8.23;4.33;;;;;;;7.41;76.51;99336.09;30963598;28;97087;-63
2023/11/19 17:56:06;;;;;;;11.18;5.30;;;;;;;7.53;76.57;99333.06;30961975;28;97176;-65
2023/11/19 18:11:10;;;;;;;13.57;6.03;;;;;;;7.58;76.03;99320.13;30961785;28;97372;-62
2023/11/19 18:26:10;;;;;;;8.63;5.17;;;;;;;7.53;75.46;99318.03;30959703;28;96833;-62
2023/11/19 18:41:12;;;;;;;15.48;8.60;;;;;;;7.69;75.30;99330.34;30972450;28;97428;-67
2023/11/19 18:56:14;;;;;;;12.20;5.67;;;;;;;7.91;75.07;99333.25;30976313;28;97542;-63
2023/11/19 19:11:14;;;;;;;9.50;4.23;;;;;;;8.07;74.85;99333.16;30975585;28;97130;-63
2023/11/19 19:26:14;;;;;;;11.25;4.53;;;;;;;8.14;74.51;99333.28;30975369;28;97241;-65
2023/11/19 19:41:15;;;;;;;10.98;4.18;;;;;;;8.18;74.52;99341.72;30973296;28;96938;-62
2023/11/19 19:56:15;;;;;;;15.13;4.82;;;;;;;8.16;73.74;99338.41;30970604;28;96688;-64
2023/11/19 20:11:17;;;;;;;6.53;4.15;;;;;;;8.20;74.00;99350.31;30971720;28;96702;-63
2023/11/19 20:26:21;;;;;;;8.63;4.40;;;;;;;8.28;73.50;99347.59;30970529;28;98004;-64
2023/11/19 20:41:21;;;;;;;8.40;3.80;;;;;;;8.36;73.55;99355.50;30968245;28;97272;-62
2023/11/19 20:56:23;;;;;;;11.40;3.53;;;;;;;8.38;73.76;99358.84;30965527;28;96720;-64
2023/11/19 21:11:23;;;;;;;14.53;4.07;;;;;;;8.73;73.48;99363.75;30965809;28;96589;-63
2023/11/19 21:26:24;;;;;;;13.02;3.13;;;;;;;8.90;73.04;99375.03;30964701;28;97387;-63
2023/11/19 21:41:24;;;;;;;10.07;2.72;;;;;;;9.05;72.63;99375.91;30964083;28;97544;-64
2023/11/19 21:56:24;;;;;;;7.82;1.88;;;;;;;8.79;73.22;99355.88;30962575;28;97380;-65
2023/11/19 22:11:27;;;;;;;9.05;2.00;;;;;;;8.55;73.75;99348.13;30959252;28;109392;-65
2023/11/19 22:26:27;;;;;;;9.13;2.50;;;;;;;8.26;74.78;99350.44;30959301;28;97236;-63
2023/11/19 22:41:28;;;;;;;6.30;1.73;;;;;;;8.23;74.82;99344.66;30959637;28;112440;-63
2023/11/19 22:56:28;;;;;;;12.32;3.15;;;;;;;7.93;74.87;99360.44;30958337;28;112427;-64
2023/11/19 23:11:29;;;;;;;11.90;3.38;;;;;;;7.68;74.79;99362.34;30958269;28;97069;-64
2023/11/19 23:26:29;;;;;;;12.45;3.78;;;;;;;7.56;75.95;99368.03;30972271;28;96970;-63
2023/11/19 23:41:29;;;;;;;12.95;3.28;;;;;;;7.54;75.85;99371.84;30977704;28;112318;-65
2023/11/19 23:56:29;;;;;;;10.10;2.75;;;;;;;7.57;75.77;99376.78;30975396;28;97187;-64
